Aérodrome :
LOGIN :

S'inscrire | Disclaimer

   EN    FR    IT 

 










Légende :    VFR   VFR Marginal   IFR   IFR Intensif   IFR Très Intensif
Visi : 
Plafond : 
>= 8 km
>= 3000ft
5 à 8 km
1000 à 3000 ft
1500m à 5 km
500 à 1000 ft
800 à 1500m
200 à 500 ft
< 800m
< 200 ft
Symboles :   Orages  Brouillard  Fortes neiges  Fortes précipitations  Vent > 20 kt
SIGMETs :   Divers  Orages  Givrage  Turbulence  Onde Orograph.  Cendres Volcan.







- Altitude de l'aérodrome : 106 ft
- Code IATA : XDA
- Voir les cartes d'approche


LFBY - Dax Seyresse

DERNIER METAR :
  • 200100Z AUTO 18005KT 7000 // ////// 08/07 Q1024

METARs EXPIRÉS :
  • 200030Z AUTO 20006KT 9000 // ////// 08/07 Q1025
  • 200000Z AUTO 19005KT 150V220 9000 // FEW042 09/07 Q1025
  • 192330Z AUTO 21005KT 9000 // BKN046 09/08 Q1025
  • 192300Z AUTO VRB02KT 9999 // FEW041/// ///TCU 09/07 Q1025
  • 192230Z AUTO 26005KT 220V310 4700 // FEW030 BKN040 BKN048 09/08 Q1025

Prévision TAF périmée.
Pas de NOTAMs connus pour ce terrain.
1 SIGMET publié pour la FIR Bordeaux (LFBB) :
 
Turbulence forte
LFBB SIGMET 2 VALID 200000/200400 LFPW
LFBB BORDEAUX FIR/UIR SEV TURB FCST NE OF LINE N4430 E00245 - N4715 E00200 FL200/400 MOV E 35KT NC=



MET'MAP, la Météo Aéronautique d'un coup d'oeil ! - Copyright ORBIFLY Décembre 2007 - Disclaimer

ORBIFLY MET'MAP TEAM :

Programmation & Développement : Alexandra Zaïnal
Conception & Développement : Baudouin d'Aumeries
Co-Programmation & Développement : Marc-Olivier Méhu
Soutien technique & logistique : Manuel Goepfert

Contact : metmap@orbifly.com




SOURCES & CREDITS :

   NOAA